Time;durP1;ratioP1;P1;durP2;ratioP2;P2;SDS_P1;SDS_P2;PMS_P1;PMS_P2;Temp;Humidity;BMP_temperature;BMP_pressure;BME280_temperature;BME280_humidity;BME280_pressure;Samples;Min_cycle;Max_cycle;Signal;HPM_P1;HPM_P2
2021/10/29 00:00:59;;;;;;;6.65;5.00;;;;;;;0.35;100.00;92935.13;2107685;27;20707;-88
2021/10/29 00:02:00;;;;;;;6.15;4.85;;;;;;;0.34;100.00;92930.97;2115800;28;20022;-87
2021/10/29 00:03:02;;;;;;;11.00;5.07;;;;;;;0.44;100.00;92929.59;2112475;28;20054;-85
2021/10/29 00:04:05;;;;;;;7.03;5.30;;;;;;;0.42;100.00;92932.59;2115228;27;20146;-90
2021/10/29 00:05:08;;;;;;;8.18;4.50;;;;;;;0.48;100.00;92931.19;2123043;27;20023;-85
2021/10/29 00:06:09;;;;;;;7.10;4.40;;;;;;;0.50;100.00;92928.19;2107334;28;20023;-86
2021/10/29 00:07:13;;;;;;;6.57;4.47;;;;;;;0.48;100.00;92923.28;2109355;27;20073;-85
2021/10/29 00:08:16;;;;;;;5.75;4.28;;;;;;;0.41;100.00;92927.69;2121697;27;20486;-87
2021/10/29 00:09:17;;;;;;;5.45;4.85;;;;;;;0.37;100.00;92925.00;2098678;28;20112;-85
2021/10/29 00:10:19;;;;;;;6.07;4.10;;;;;;;0.47;100.00;92919.13;2099039;28;20520;-85
2021/10/29 00:11:20;;;;;;;4.95;4.35;;;;;;;0.46;100.00;92922.88;2105484;28;20056;-86
2021/10/29 00:12:22;;;;;;;5.95;4.75;;;;;;;0.45;100.00;92921.38;2098872;28;20074;-86
2021/10/29 00:13:23;;;;;;;5.70;4.50;;;;;;;0.40;100.00;92921.69;2100710;28;20073;-84
2021/10/29 00:14:25;;;;;;;4.85;4.35;;;;;;;0.41;100.00;92917.94;2099026;28;20074;-85
2021/10/29 00:15:27;;;;;;;7.95;4.30;;;;;;;0.25;100.00;92925.22;2105633;28;20027;-86
2021/10/29 00:16:27;;;;;;;4.57;4.13;;;;;;;0.32;100.00;92920.06;2099171;28;20027;-90
2021/10/29 00:17:28;;;;;;;5.38;4.85;;;;;;;0.40;100.00;92921.69;2098908;28;20027;-87
2021/10/29 00:18:30;;;;;;;5.03;4.50;;;;;;;0.33;100.00;92921.56;2098955;28;20078;-88
2021/10/29 00:19:31;;;;;;;4.28;3.88;;;;;;;0.37;100.00;92919.00;2100680;28;20218;-90
2021/10/29 00:20:33;;;;;;;7.97;4.25;;;;;;;0.38;100.00;92923.91;2115890;27;20098;-85
2021/10/29 00:21:34;;;;;;;4.85;4.03;;;;;;;0.38;100.00;92915.25;2105322;28;20476;-86
2021/10/29 00:22:35;;;;;;;5.50;4.10;;;;;;;0.40;100.00;92920.94;2093296;28;20036;-86
2021/10/29 00:23:36;;;;;;;4.20;3.80;;;;;;;0.36;100.00;92913.00;2114210;28;20027;-89
2021/10/29 00:24:37;;;;;;;4.63;3.75;;;;;;;0.40;100.00;92921.69;2110344;28;20023;-89
2021/10/29 00:25:38;;;;;;;4.40;3.97;;;;;;;0.33;100.00;92915.56;2107254;28;20050;-90
2021/10/29 00:26:40;;;;;;;4.25;3.63;;;;;;;0.32;100.00;92917.44;2115634;28;20027;-88
2021/10/29 00:27:41;;;;;;;6.43;3.97;;;;;;;0.30;100.00;92914.41;2105560;28;20024;-87
2021/10/29 00:28:42;;;;;;;4.32;3.90;;;;;;;0.30;100.00;92919.66;2086065;28;20120;-86
2021/10/29 00:29:44;;;;;;;4.93;4.00;;;;;;;0.25;100.00;92914.72;2087685;28;20025;-88
2021/10/29 00:30:45;;;;;;;6.38;4.45;;;;;;;0.20;100.00;92917.66;2098692;28;20036;-87
2021/10/29 00:31:46;;;;;;;3.97;3.55;;;;;;;0.16;100.00;92922.84;2108301;28;20024;-83
2021/10/29 00:32:47;;;;;;;5.88;3.90;;;;;;;0.19;100.00;92914.25;2120869;28;20097;-83
2021/10/29 00:33:48;;;;;;;4.07;3.67;;;;;;;0.23;100.00;92924.84;2117737;28;20068;-86
2021/10/29 00:34:49;;;;;;;3.70;3.40;;;;;;;0.21;100.00;92921.78;2104640;28;20137;-84
2021/10/29 00:35:50;;;;;;;4.03;3.63;;;;;;;0.19;100.00;92919.53;2090492;28;20515;-89
2021/10/29 00:36:51;;;;;;;4.03;3.60;;;;;;;0.29;100.00;92917.38;2098921;28;20091;-88
2021/10/29 00:37:53;;;;;;;4.03;3.40;;;;;;;0.32;100.00;92920.06;2099425;28;20072;-85
2021/10/29 00:38:54;;;;;;;4.50;3.33;;;;;;;0.31;100.00;92917.78;2107137;28;20043;-89
2021/10/29 00:39:55;;;;;;;3.83;3.53;;;;;;;0.35;100.00;92919.38;2101174;28;20028;-84
2021/10/29 00:40:56;;;;;;;3.97;3.35;;;;;;;0.26;100.00;92926.72;2098801;28;20103;-85
2021/10/29 00:41:57;;;;;;;3.83;3.35;;;;;;;0.26;100.00;92934.63;2107192;28;20028;-87
2021/10/29 00:42:58;;;;;;;4.35;3.90;;;;;;;0.23;100.00;92932.72;2115053;28;20528;-88
2021/10/29 00:43:59;;;;;;;4.15;3.58;;;;;;;0.24;100.00;92921.09;2104363;28;20473;-84
2021/10/29 00:45:00;;;;;;;4.25;3.67;;;;;;;0.25;100.00;92914.72;2105028;28;20020;-88
2021/10/29 00:46:01;;;;;;;4.38;3.40;;;;;;;0.25;100.00;92923.34;2107349;28;20065;-89
2021/10/29 00:47:03;;;;;;;3.88;3.30;;;;;;;0.26;100.00;92921.47;2106579;28;20020;-87
2021/10/29 00:48:04;;;;;;;8.15;4.00;;;;;;;0.30;100.00;92922.28;2098800;28;20025;-86
2021/10/29 00:49:05;;;;;;;3.63;3.33;;;;;;;0.35;100.00;92910.69;2107081;28;20028;-89
2021/10/29 00:50:07;;;;;;;3.47;3.17;;;;;;;0.16;100.00;92919.47;2107200;28;20028;-86
2021/10/29 00:51:08;;;;;;;4.25;3.83;;;;;;;0.13;100.00;92918.31;2106525;28;20028;-88
2021/10/29 00:52:09;;;;;;;3.88;3.38;;;;;;;0.10;100.00;92926.91;2106911;28;20023;-84
2021/10/29 00:53:10;;;;;;;3.65;3.30;;;;;;;0.17;100.00;92918.34;2099154;28;20118;-88
2021/10/29 00:54:14;;;;;;;4.03;3.47;;;;;;;0.12;100.00;92919.41;2098668;28;20016;-86
2021/10/29 00:55:16;;;;;;;3.95;3.47;;;;;;;0.26;100.00;92921.47;2107429;28;20032;-87
2021/10/29 00:56:18;;;;;;;4.70;3.80;;;;;;;0.12;100.00;92916.78;2106969;28;20091;-84
2021/10/29 00:57:19;;;;;;;4.63;3.30;;;;;;;0.20;100.00;92912.38;2089860;28;20418;-86
2021/10/29 00:58:20;;;;;;;4.35;3.58;;;;;;;0.14;100.00;92911.19;2098015;28;20033;-88
2021/10/29 00:59:21;;;;;;;4.20;3.60;;;;;;;0.14;100.00;92911.94;2100464;28;20075;-87
2021/10/29 01:00:23;;;;;;;4.32;3.63;;;;;;;0.25;100.00;92907.56;2106290;28;20065;-87
2021/10/29 01:01:24;;;;;;;4.20;3.35;;;;;;;0.05;100.00;92913.31;2097409;28;20021;-85
2021/10/29 01:02:26;;;;;;;7.53;3.85;;;;;;;0.09;100.00;92908.84;2099389;28;20028;-86
2021/10/29 01:03:30;;;;;;;4.22;3.67;;;;;;;0.08;100.00;92915.97;2105188;28;20492;-85
2021/10/29 01:04:33;;;;;;;3.67;3.38;;;;;;;0.05;100.00;92910.69;2101466;27;20095;-87
2021/10/29 01:05:40;;;;;;;5.55;3.38;;;;;;;0.04;100.00;92917.03;2121358;27;20024;-87
2021/10/29 01:06:42;;;;;;;5.88;3.70;;;;;;;0.03;100.00;92921.53;2099243;28;20032;-87
2021/10/29 01:07:45;;;;;;;5.72;3.20;;;;;;;-0.02;100.00;92912.09;2091109;28;20036;-90
2021/10/29 01:08:46;;;;;;;5.22;3.22;;;;;;;0.03;100.00;92918.16;2104862;28;20052;-87
2021/10/29 01:09:48;;;;;;;4.55;3.35;;;;;;;0.06;100.00;92915.59;2098806;28;20485;-86
2021/10/29 01:10:50;;;;;;;4.35;3.70;;;;;;;-0.02;100.00;92916.59;2106493;28;20020;-91
2021/10/29 01:11:51;;;;;;;4.63;3.65;;;;;;;-0.09;100.00;92919.09;2102989;28;20058;-86
2021/10/29 01:12:52;;;;;;;5.15;3.45;;;;;;;-0.03;100.00;92913.22;2110270;27;20030;-86
2021/10/29 01:13:53;;;;;;;5.38;3.42;;;;;;;-0.06;100.00;92924.41;2115142;28;20027;-91
2021/10/29 01:14:57;;;;;;;4.47;3.42;;;;;;;-0.07;100.00;92916.91;2106797;28;20097;-84
2021/10/29 01:15:58;;;;;;;6.53;3.75;;;;;;;-0.05;100.00;92918.03;2115565;27;20023;-87
2021/10/29 01:16:59;;;;;;;6.13;3.70;;;;;;;-0.02;100.00;92912.09;2111025;28;20050;-87
2021/10/29 01:18:00;;;;;;;7.75;3.80;;;;;;;-0.01;100.00;92913.59;2106739;28;20043;-87
2021/10/29 01:19:01;;;;;;;4.97;3.45;;;;;;;0.03;100.00;92918.16;2121869;27;20019;-90
2021/10/29 01:20:03;;;;;;;6.32;3.90;;;;;;;0.07;100.00;92908.47;2114560;28;20015;-89
2021/10/29 01:21:04;;;;;;;7.35;3.95;;;;;;;0.06;100.00;92910.34;2106646;28;20020;-86
2021/10/29 01:22:05;;;;;;;5.38;3.55;;;;;;;-0.02;100.00;92912.09;2100382;28;20081;-85
2021/10/29 01:23:06;;;;;;;6.55;3.50;;;;;;;0.09;100.00;92911.47;2092271;28;20025;-88
2021/10/29 01:24:08;;;;;;;6.18;3.92;;;;;;;0.05;100.00;92905.44;2098507;28;20028;-92
2021/10/29 01:25:10;;;;;;;4.82;3.70;;;;;;;0.13;100.00;92907.03;2098106;28;20028;-87
2021/10/29 01:26:15;;;;;;;7.22;3.83;;;;;;;0.01;100.00;92910.63;2106598;28;20354;-89
2021/10/29 01:27:17;;;;;;;5.18;3.33;;;;;;;-0.04;100.00;92909.06;2106369;28;20461;-84
2021/10/29 01:28:17;;;;;;;4.05;3.40;;;;;;;-0.04;100.00;92903.81;2099705;28;20021;-83
2021/10/29 01:29:18;;;;;;;5.45;3.70;;;;;;;0.10;100.00;92905.88;2106527;28;20058;-87
2021/10/29 01:30:20;;;;;;;5.78;3.90;;;;;;;-0.10;100.00;92904.47;2115280;28;20368;-88
2021/10/29 01:31:21;;;;;;;6.63;4.10;;;;;;;-0.04;100.00;92908.31;2105045;28;20020;-89
2021/10/29 01:32:23;;;;;;;5.72;3.47;;;;;;;0.09;100.00;92898.34;2100980;28;20028;-86
2021/10/29 01:33:24;;;;;;;5.47;3.95;;;;;;;-0.06;100.00;92906.03;2107376;28;20020;-87
2021/10/29 01:34:25;;;;;;;6.07;4.13;;;;;;;-0.07;100.00;92901.88;2107427;28;20507;-87
2021/10/29 01:35:27;;;;;;;6.05;3.83;;;;;;;-0.04;100.00;92903.06;2116433;27;20051;-84
2021/10/29 01:36:28;;;;;;;5.90;3.45;;;;;;;-0.08;100.00;92895.13;2106619;28;20038;-87
2021/10/29 01:37:29;;;;;;;4.43;3.28;;;;;;;-0.13;100.00;92905.94;2098097;28;20028;-88
2021/10/29 01:38:39;;;;;;;5.88;3.75;;;;;;;-0.09;100.00;92898.88;2101479;28;20019;-87
2021/10/29 01:39:40;;;;;;;4.72;3.60;;;;;;;0.09;100.00;92901.75;2104628;28;20032;-85
2021/10/29 01:40:41;;;;;;;5.95;3.42;;;;;;;0.02;100.00;92898.25;2093918;28;20028;-86
2021/10/29 01:41:43;;;;;;;8.02;4.03;;;;;;;-0.08;100.00;92897.00;2098405;28;20354;-88
2021/10/29 01:42:46;;;;;;;6.47;3.30;;;;;;;0.03;100.00;92899.75;2106158;28;20024;-87
2021/10/29 01:43:48;;;;;;;5.20;3.58;;;;;;;-0.01;100.00;92889.94;2106865;28;20046;-88
2021/10/29 01:44:49;;;;;;;8.45;3.70;;;;;;;-0.04;100.00;92895.19;2118889;27;20023;-84
2021/10/29 01:45:50;;;;;;;6.53;3.22;;;;;;;-0.03;100.00;92886.94;2106613;28;20063;-86
2021/10/29 01:46:51;;;;;;;7.60;4.07;;;;;;;-0.04;100.00;92882.81;2106265;28;20020;-85
2021/10/29 01:47:53;;;;;;;7.57;3.55;;;;;;;-0.09;100.00;92880.47;2101766;28;20099;-84
2021/10/29 01:48:54;;;;;;;5.25;3.38;;;;;;;-0.15;100.00;92892.38;2096264;28;20028;-87
2021/10/29 01:49:55;;;;;;;6.95;3.38;;;;;;;-0.10;100.00;92886.06;2098400;28;20077;-85
2021/10/29 01:50:56;;;;;;;7.43;3.58;;;;;;;-0.20;100.00;92882.19;2102311;28;20115;-84
2021/10/29 01:51:57;;;;;;;6.93;3.38;;;;;;;-0.11;100.00;92895.81;2111041;28;20019;-87
2021/10/29 01:52:58;;;;;;;6.38;3.70;;;;;;;-0.19;100.00;92888.94;2114598;27;20379;-88
2021/10/29 01:53:59;;;;;;;5.90;3.83;;;;;;;-0.22;100.00;92881.78;2112294;28;20463;-84
2021/10/29 01:55:01;;;;;;;4.80;3.40;;;;;;;-0.12;100.00;92880.44;2108784;28;20023;-88
2021/10/29 01:56:02;;;;;;;4.65;3.10;;;;;;;-0.25;100.00;92877.25;2099771;28;20035;-87
2021/10/29 01:57:04;;;;;;;6.25;3.67;;;;;;;-0.17;100.00;92876.22;2105954;28;20533;-87
2021/10/29 01:58:05;;;;;;;5.45;3.85;;;;;;;-0.17;100.00;92881.50;2106465;28;20024;-85
2021/10/29 01:59:06;;;;;;;5.90;3.60;;;;;;;-0.09;100.00;92879.69;2109006;28;20039;-88
2021/10/29 02:00:08;;;;;;;6.70;3.42;;;;;;;-0.11;100.00;92877.44;2114915;28;20022;-86
2021/10/29 02:01:09;;;;;;;5.15;2.97;;;;;;;-0.19;100.00;92873.19;2111985;28;20020;-90
2021/10/29 02:02:10;;;;;;;6.05;3.13;;;;;;;-0.17;100.00;92884.13;2096589;28;20103;-85
2021/10/29 02:03:11;;;;;;;6.53;3.40;;;;;;;-0.12;100.00;92881.19;2104225;28;20047;-89
2021/10/29 02:04:12;;;;;;;6.55;3.97;;;;;;;-0.14;100.00;92878.13;2104994;28;20035;-86
2021/10/29 02:05:15;;;;;;;6.13;3.42;;;;;;;-0.23;100.00;92877.63;2106062;28;20059;-89
2021/10/29 02:08:22;;;;;;;;;;;;;;;-0.17;100.00;92878.09;2149243;27;20874;-90
2021/10/29 02:09:24;;;;;;;8.15;3.30;;;;;;;-0.20;100.00;92871.69;2137828;27;19910;-88
2021/10/29 02:10:25;;;;;;;6.38;3.15;;;;;;;-0.21;100.00;92870.16;2122885;27;20119;-89
2021/10/29 02:11:26;;;;;;;8.57;3.67;;;;;;;-0.22;100.00;92871.28;2137920;27;20030;-90
2021/10/29 02:12:27;;;;;;;5.00;3.53;;;;;;;-0.17;100.00;92865.72;2122018;28;20537;-91
2021/10/29 02:13:28;;;;;;;5.60;3.03;;;;;;;-0.23;100.00;92872.38;2114727;27;20032;-86
2021/10/29 02:14:29;;;;;;;6.75;2.97;;;;;;;-0.12;100.00;92862.78;2124978;27;20427;-91
2021/10/29 02:15:30;;;;;;;4.38;3.30;;;;;;;-0.13;100.00;92863.13;2123536;27;20027;-86
2021/10/29 02:16:31;;;;;;;6.32;3.85;;;;;;;-0.20;100.00;92868.31;2121949;27;20062;-88
2021/10/29 02:17:32;;;;;;;6.50;3.47;;;;;;;-0.23;100.00;92863.75;2113591;27;20058;-88
2021/10/29 02:18:33;;;;;;;4.10;3.03;;;;;;;-0.20;100.00;92863.03;2123853;27;20027;-83
2021/10/29 02:19:35;;;;;;;4.43;3.20;;;;;;;-0.27;100.00;92866.31;2138271;27;20037;-87
2021/10/29 02:20:36;;;;;;;4.32;2.85;;;;;;;-0.19;100.00;92870.56;2121747;28;20561;-87
2021/10/29 02:21:37;;;;;;;5.72;3.65;;;;;;;-0.11;100.00;92866.94;2105878;28;20032;-90
2021/10/29 02:22:39;;;;;;;7.05;3.17;;;;;;;-0.22;100.00;92876.53;2121940;27;20365;-88
2021/10/29 02:23:39;;;;;;;5.28;2.90;;;;;;;-0.25;100.00;92877.25;2116359;27;20027;-90
2021/10/29 02:24:40;;;;;;;5.13;3.20;;;;;;;-0.21;100.00;92878.03;2130682;27;20030;-91
2021/10/29 02:25:46;;;;;;;3.55;3.00;;;;;;;-0.18;100.00;92879.94;2121351;27;20479;-85
2021/10/29 02:26:47;;;;;;;4.50;2.92;;;;;;;-0.21;100.00;92878.03;2105789;28;20488;-88
2021/10/29 02:27:48;;;;;;;5.80;2.90;;;;;;;-0.05;100.00;92880.50;2121124;27;20123;-87
2021/10/29 02:28:50;;;;;;;7.28;3.25;;;;;;;-0.12;100.00;92875.94;2131284;27;20023;-84
2021/10/29 02:29:51;;;;;;;4.05;2.80;;;;;;;-0.11;100.00;92877.44;2124210;27;20080;-87
2021/10/29 02:30:52;;;;;;;5.78;3.08;;;;;;;-0.06;100.00;92882.38;2121906;28;20454;-91
2021/10/29 02:31:53;;;;;;;4.63;2.95;;;;;;;-0.12;100.00;92875.16;2117908;28;20035;-87
2021/10/29 02:32:54;;;;;;;5.13;2.92;;;;;;;-0.19;100.00;92880.31;2118360;27;20023;-88
2021/10/29 02:33:56;;;;;;;6.35;3.63;;;;;;;-0.20;100.00;92879.56;2116650;28;20027;-89
2021/10/29 02:34:57;;;;;;;6.20;2.88;;;;;;;-0.21;100.00;92883.31;2110383;28;20102;-86
2021/10/29 02:35:58;;;;;;;7.60;3.08;;;;;;;-0.17;100.00;92864.97;2122079;27;20042;-89
2021/10/29 02:36:59;;;;;;;3.75;2.95;;;;;;;-0.17;100.00;92870.97;2121845;28;20015;-86
2021/10/29 02:38:00;;;;;;;5.22;3.10;;;;;;;-0.19;100.00;92872.44;2121945;27;20027;-89
2021/10/29 02:39:01;;;;;;;7.47;2.75;;;;;;;-0.23;100.00;92864.50;2130213;27;20033;-92
2021/10/29 02:40:04;;;;;;;6.25;2.67;;;;;;;-0.13;100.00;92866.53;2121936;27;20038;-86
2021/10/29 02:41:05;;;;;;;4.25;2.50;;;;;;;-0.14;100.00;92861.63;2113501;28;20028;-88
2021/10/29 02:42:06;;;;;;;5.15;2.97;;;;;;;-0.20;100.00;92858.53;2128260;27;20019;-87
2021/10/29 02:43:07;;;;;;;4.40;2.97;;;;;;;-0.20;100.00;92863.81;2130246;27;20485;-92
2021/10/29 02:44:08;;;;;;;6.03;3.25;;;;;;;-0.22;100.00;92858.16;2121822;28;20023;-89
2021/10/29 02:45:09;;;;;;;6.38;3.10;;;;;;;-0.19;100.00;92857.44;2129916;27;20075;-90
2021/10/29 02:46:10;;;;;;;4.15;2.88;;;;;;;-0.25;100.00;92850.97;2130460;27;20026;-87
2021/10/29 02:47:11;;;;;;;3.92;2.63;;;;;;;-0.36;100.00;92860.56;2112741;28;20031;-91
2021/10/29 02:48:12;;;;;;;4.63;2.92;;;;;;;-0.27;100.00;92851.31;2104981;28;20024;-88
2021/10/29 02:49:13;;;;;;;3.60;2.60;;;;;;;-0.27;100.00;92851.31;2121460;27;20019;-89
2021/10/29 02:50:16;;;;;;;6.20;2.88;;;;;;;-0.26;100.00;92850.22;2121759;27;20068;-86
2021/10/29 02:51:17;;;;;;;5.97;2.75;;;;;;;-0.32;100.00;92845.63;2129855;27;20543;-90
2021/10/29 02:52:18;;;;;;;5.80;2.80;;;;;;;-0.31;100.00;92847.91;2121214;27;20026;-89
2021/10/29 02:53:19;;;;;;;5.10;2.67;;;;;;;-0.27;100.00;92845.31;2119252;27;20114;-87
2021/10/29 02:54:20;;;;;;;4.97;2.97;;;;;;;-0.28;100.00;92838.53;2130565;27;20027;-90
2021/10/29 02:55:21;;;;;;;4.25;2.55;;;;;;;-0.27;100.00;92840.81;2130143;27;20097;-88
2021/10/29 02:56:22;;;;;;;6.15;2.65;;;;;;;-0.27;100.00;92837.44;2121804;27;20016;-87
2021/10/29 02:57:23;;;;;;;4.35;2.97;;;;;;;-0.24;100.00;92838.59;2112983;28;20031;-87
2021/10/29 02:58:27;;;;;;;4.13;2.95;;;;;;;-0.38;100.00;92831.28;2113218;28;20047;-87
2021/10/29 02:59:28;;;;;;;8.45;3.00;;;;;;;-0.42;100.00;92840.97;2121086;28;20027;-89
2021/10/29 03:00:29;;;;;;;4.68;2.40;;;;;;;-0.35;100.00;92844.47;2113147;28;20567;-89
2021/10/29 03:01:30;;;;;;;3.38;2.70;;;;;;;-0.49;100.00;92832.97;2113065;28;20030;-89
2021/10/29 03:02:31;;;;;;;4.05;2.80;;;;;;;-0.42;100.00;92836.47;2106168;28;20028;-84
2021/10/29 03:03:32;;;;;;;3.20;2.65;;;;;;;-0.46;100.00;92832.28;2104596;28;20992;-88
2021/10/29 03:04:34;;;;;;;5.03;3.10;;;;;;;-0.38;100.00;92837.28;2105100;28;20493;-87
2021/10/29 03:05:38;;;;;;;6.57;2.78;;;;;;;-0.25;100.00;92840.47;2119832;27;20053;-89
2021/10/29 03:06:39;;;;;;;4.18;2.60;;;;;;;-0.41;100.00;92831.97;2121815;28;20023;-87
2021/10/29 03:07:40;;;;;;;3.45;2.20;;;;;;;-0.47;100.00;92839.41;2110037;28;20524;-88
2021/10/29 03:08:41;;;;;;;3.78;2.80;;;;;;;-0.45;100.00;92837.16;2104727;28;20067;-86
2021/10/29 03:09:42;;;;;;;5.47;2.63;;;;;;;-0.46;100.00;92837.53;2107261;28;20126;-90
2021/10/29 03:10:43;;;;;;;3.95;2.50;;;;;;;-0.47;100.00;92842.03;2113026;28;20066;-86
2021/10/29 03:11:44;;;;;;;6.60;2.72;;;;;;;-0.41;100.00;92837.97;2110735;28;20422;-89
2021/10/29 03:12:45;;;;;;;3.83;2.65;;;;;;;-0.49;100.00;92848.72;2124885;27;20015;-88
2021/10/29 03:13:46;;;;;;;4.50;2.90;;;;;;;-0.56;100.00;92837.03;2130152;27;20113;-87
2021/10/29 03:14:47;;;;;;;4.05;2.55;;;;;;;-0.56;100.00;92836.28;2130045;27;20082;-86
2021/10/29 03:15:49;;;;;;;8.05;2.60;;;;;;;-0.56;100.00;92844.91;2121331;27;20020;-88
2021/10/29 03:16:50;;;;;;;8.00;2.60;;;;;;;-0.45;100.00;92845.03;2121869;27;20519;-86
2021/10/29 03:17:51;;;;;;;5.63;2.90;;;;;;;-0.46;100.00;92843.53;2120111;28;20015;-88
2021/10/29 03:18:52;;;;;;;4.75;2.17;;;;;;;-0.48;100.00;92842.38;2116367;28;20217;-87
2021/10/29 03:19:53;;;;;;;3.90;2.30;;;;;;;-0.51;100.00;92841.22;2107460;28;20057;-91
2021/10/29 03:20:54;;;;;;;3.05;2.70;;;;;;;-0.51;100.00;92844.59;2107511;28;20085;-91
2021/10/29 03:21:55;;;;;;;5.88;2.67;;;;;;;-0.56;100.00;92847.53;2115586;28;20068;-91
2021/10/29 03:22:56;;;;;;;4.03;2.60;;;;;;;-0.40;100.00;92850.00;2112331;28;20064;-89
2021/10/29 03:23:57;;;;;;;5.38;2.47;;;;;;;-0.56;100.00;92852.78;2111002;28;20088;-90
2021/10/29 03:24:58;;;;;;;3.83;2.22;;;;;;;-0.60;100.00;92851.97;2099115;28;20081;-88
2021/10/29 03:25:59;;;;;;;6.15;2.65;;;;;;;-0.52;100.00;92850.97;2102051;28;20074;-87
2021/10/29 03:27:00;;;;;;;4.40;2.47;;;;;;;-0.42;100.00;92848.84;2107548;28;20043;-88
2021/10/29 03:28:01;;;;;;;5.22;2.55;;;;;;;-0.48;100.00;92843.16;2113036;27;20092;-86
2021/10/29 03:29:02;;;;;;;3.42;2.60;;;;;;;-0.52;100.00;92855.47;2101696;28;20028;-87
2021/10/29 03:30:05;;;;;;;4.40;2.30;;;;;;;-0.51;100.00;92851.72;2103470;28;20473;-88
2021/10/29 03:31:06;;;;;;;3.08;2.20;;;;;;;-0.49;100.00;92851.34;2109506;28;20464;-87
2021/10/29 03:32:08;;;;;;;4.88;2.58;;;;;;;-0.49;100.00;92848.72;2092499;28;20024;-87
2021/10/29 03:33:09;;;;;;;3.83;2.53;;;;;;;-0.48;100.00;92847.63;2114022;28;20045;-88
2021/10/29 03:34:10;;;;;;;2.60;2.03;;;;;;;-0.50;100.00;92850.59;2111625;28;20024;-87
2021/10/29 03:35:11;;;;;;;5.30;2.67;;;;;;;-0.54;100.00;92841.91;2106015;28;20031;-90
2021/10/29 03:36:12;;;;;;;4.03;2.47;;;;;;;-0.54;100.00;92855.03;2107397;28;20370;-90
2021/10/29 03:39:53;;;;;;;2.88;1.90;;;;;;;-0.51;100.00;92849.84;2108766;28;20032;-87
2021/10/29 03:41:07;;;;;;;5.68;2.40;;;;;;;-0.57;100.00;92853.88;2108263;27;20496;-86
2021/10/29 03:42:19;;;;;;;3.67;2.10;;;;;;;-0.56;100.00;92857.28;2109029;28;20019;-86
2021/10/29 03:43:28;;;;;;;3.50;2.38;;;;;;;-0.52;100.00;92855.47;2110291;27;20137;-83
2021/10/29 03:45:53;;;;;;;5.22;2.60;;;;;;;-0.47;100.00;92844.66;2109684;28;20077;-87
2021/10/29 03:46:57;;;;;;;4.03;2.58;;;;;;;-0.47;100.00;92849.91;2107967;28;20344;-89
2021/10/29 03:48:00;;;;;;;2.97;2.50;;;;;;;-0.51;100.00;92852.47;2107318;28;20031;-89
2021/10/29 03:49:11;;;;;;;3.53;2.67;;;;;;;-0.51;100.00;92857.72;2112794;28;20522;-89
2021/10/29 03:51:34;;;;;;;5.70;3.30;;;;;;;-0.62;100.00;92835.03;2109651;27;20019;-87
2021/10/29 03:52:37;;;;;;;3.95;2.67;;;;;;;-0.58;100.00;92848.97;2108372;28;20024;-86
2021/10/29 03:53:45;;;;;;;3.85;2.70;;;;;;;-0.52;100.00;92845.72;2107435;28;20111;-87
2021/10/29 03:54:50;;;;;;;5.35;3.00;;;;;;;-0.51;100.00;92846.47;2108163;28;20046;-90
2021/10/29 03:55:53;;;;;;;4.25;2.85;;;;;;;-0.55;100.00;92849.03;2102739;28;20047;-91
2021/10/29 03:58:01;;;;;;;4.03;3.13;;;;;;;-0.56;100.00;92841.53;2116060;27;20023;-88
2021/10/29 03:59:02;;;;;;;4.13;2.88;;;;;;;-0.66;100.00;92844.72;2115700;28;20023;-88
2021/10/29 04:00:04;;;;;;;3.05;2.65;;;;;;;-0.58;100.00;92841.09;2107404;28;20069;-90
2021/10/29 04:01:05;;;;;;;6.75;3.45;;;;;;;-0.61;100.00;92845.19;2115656;28;20024;-88
2021/10/29 04:02:10;;;;;;;4.15;2.92;;;;;;;-0.66;100.00;92842.88;2113002;28;20049;-88
2021/10/29 04:03:11;;;;;;;6.85;3.15;;;;;;;-0.66;100.00;92853.38;2108181;27;20115;-90
2021/10/29 04:04:15;;;;;;;4.03;3.25;;;;;;;-0.62;100.00;92846.28;2115919;27;20387;-88
2021/10/29 04:05:19;;;;;;;4.28;2.95;;;;;;;-0.60;100.00;92849.34;2100039;28;20029;-87
2021/10/29 04:06:20;;;;;;;5.43;3.63;;;;;;;-0.59;100.00;92855.34;2114439;27;20027;-86
2021/10/29 04:07:21;;;;;;;6.07;4.10;;;;;;;-0.66;100.00;92844.72;2123943;27;20076;-89
2021/10/29 04:08:23;;;;;;;7.88;4.72;;;;;;;-0.64;100.00;92851.16;2106944;28;20139;-88
2021/10/29 04:09:24;;;;;;;5.32;3.70;;;;;;;-0.65;100.00;92852.25;2102847;28;20425;-87
2021/10/29 04:10:30;;;;;;;6.32;4.07;;;;;;;-0.63;100.00;92844.03;2104983;28;20028;-88
2021/10/29 04:11:37;;;;;;;4.07;3.67;;;;;;;-0.61;100.00;92850.44;2092700;28;20112;-87
2021/10/29 04:12:38;;;;;;;3.22;2.92;;;;;;;-0.60;100.00;92836.22;2107499;28;20020;-89
2021/10/29 04:13:43;;;;;;;4.45;3.33;;;;;;;-0.62;100.00;92848.91;2107464;28;20078;-89
2021/10/29 04:14:45;;;;;;;6.72;3.33;;;;;;;-0.73;100.00;92842.00;2110713;27;20027;-87
2021/10/29 04:15:46;;;;;;;4.15;3.20;;;;;;;-0.69;100.00;92848.81;2112338;28;20023;-89
2021/10/29 04:16:46;;;;;;;6.53;3.33;;;;;;;-0.72;100.00;92849.50;2110279;28;20020;-87
2021/10/29 04:17:47;;;;;;;7.93;3.45;;;;;;;-0.70;100.00;92846.53;2123923;27;20023;-87
2021/10/29 04:18:48;;;;;;;5.55;3.22;;;;;;;-0.76;100.00;92841.56;2124107;27;20023;-88
2021/10/29 04:19:49;;;;;;;4.50;3.97;;;;;;;-0.74;100.00;92845.75;2107197;28;20488;-90
2021/10/29 04:20:50;;;;;;;4.85;4.25;;;;;;;-0.74;100.00;92846.50;2106807;28;20023;-91
2021/10/29 04:21:51;;;;;;;6.57;4.53;;;;;;;-0.72;100.00;92843.50;2115442;28;20480;-87
2021/10/29 04:22:52;;;;;;;7.05;4.60;;;;;;;-0.74;100.00;92846.50;2107540;28;20024;-86
2021/10/29 04:23:53;;;;;;;4.72;4.10;;;;;;;-0.71;100.00;92847.63;2101161;28;20028;-85
2021/10/29 04:24:54;;;;;;;6.93;4.85;;;;;;;-0.72;100.00;92835.63;2104063;28;20017;-87
2021/10/29 04:25:55;;;;;;;6.50;5.80;;;;;;;-0.70;100.00;92842.06;2104164;28;20067;-89
2021/10/29 04:26:59;;;;;;;9.80;6.20;;;;;;;-0.69;100.00;92842.81;2103425;28;20016;-89
2021/10/29 04:28:05;;;;;;;8.27;6.95;;;;;;;-0.69;100.00;92854.06;2102430;28;20024;-85
2021/10/29 04:29:13;;;;;;;9.30;8.30;;;;;;;-0.69;100.00;92848.81;2107887;28;20035;-87
2021/10/29 04:30:20;;;;;;;7.40;6.72;;;;;;;-0.74;100.00;92843.88;2114551;28;20024;-88
2021/10/29 04:31:26;;;;;;;6.20;5.60;;;;;;;-0.67;100.00;92845.84;2113202;27;20024;-86
2021/10/29 04:32:27;;;;;;;6.03;4.57;;;;;;;-0.67;100.00;92841.34;2109208;28;20103;-85
2021/10/29 04:33:28;;;;;;;7.07;5.43;;;;;;;-0.65;100.00;92835.75;2115395;28;20475;-88
2021/10/29 04:34:29;;;;;;;6.63;5.28;;;;;;;-0.74;100.00;92828.13;2113216;28;20023;-85
2021/10/29 04:35:30;;;;;;;6.93;5.50;;;;;;;-0.75;100.00;92831.84;2107955;27;20112;-88
2021/10/29 04:36:31;;;;;;;6.35;5.15;;;;;;;-0.70;100.00;92836.81;2105260;28;20016;-88
2021/10/29 04:37:33;;;;;;;7.53;5.03;;;;;;;-0.69;100.00;92832.31;2099730;28;20055;-90
2021/10/29 04:38:34;;;;;;;5.85;5.25;;;;;;;-0.78;100.00;92843.06;2106080;28;20114;-90
2021/10/29 04:39:36;;;;;;;4.90;4.40;;;;;;;-0.77;100.00;92837.44;2115486;28;20027;-86
2021/10/29 04:40:39;;;;;;;4.88;3.97;;;;;;;-0.77;100.00;92836.69;2113867;28;20079;-85
2021/10/29 04:41:42;;;;;;;6.80;3.92;;;;;;;-0.72;100.00;92833.75;2101193;28;20024;-85
2021/10/29 04:42:43;;;;;;;5.13;4.20;;;;;;;-0.75;100.00;92831.84;2106976;27;20035;-86
2021/10/29 04:43:44;;;;;;;4.47;4.07;;;;;;;-0.74;100.00;92840.50;2106904;28;20074;-88
2021/10/29 04:44:45;;;;;;;4.00;3.70;;;;;;;-0.76;100.00;92838.94;2106681;28;20484;-87
2021/10/29 04:45:46;;;;;;;5.20;4.45;;;;;;;-0.71;100.00;92835.28;2111032;28;20116;-89
2021/10/29 04:46:47;;;;;;;4.55;4.10;;;;;;;-0.66;100.00;92835.00;2098971;28;20024;-87
2021/10/29 04:47:48;;;;;;;4.30;3.60;;;;;;;-0.65;100.00;92833.13;2101634;28;20029;-88
2021/10/29 04:48:48;;;;;;;5.43;3.85;;;;;;;-0.60;100.00;92830.22;2097419;28;20031;-86
2021/10/29 04:49:49;;;;;;;4.32;2.83;;;;;;;-0.62;100.00;92838.41;2110271;27;20020;-87
2021/10/29 04:50:50;;;;;;;3.72;3.40;;;;;;;-0.60;100.00;92825.72;2121815;27;20059;-87
2021/10/29 04:51:51;;;;;;;4.18;3.15;;;;;;;-0.65;100.00;92833.88;2115031;28;20019;-86
2021/10/29 04:52:52;;;;;;;3.67;3.28;;;;;;;-0.66;100.00;92832.38;2107450;28;20431;-86
2021/10/29 04:53:55;;;;;;;3.50;3.20;;;;;;;-0.78;100.00;92825.44;2106282;28;20069;-92
2021/10/29 04:54:56;;;;;;;4.13;3.10;;;;;;;-0.74;100.00;92830.75;2098385;28;20129;-86
2021/10/29 04:55:57;;;;;;;3.70;2.90;;;;;;;-0.84;100.00;92829.44;2098138;28;20456;-90
2021/10/29 04:56:58;;;;;;;4.30;3.42;;;;;;;-0.80;100.00;92824.25;2105747;28;20056;-86